Time;durP1;ratioP1;P1;durP2;ratioP2;P2;SDS_P1;SDS_P2;PMS_P1;PMS_P2;Temp;Humidity;BMP_temperature;BMP_pressure;BME280_temperature;BME280_humidity;BME280_pressure;Samples;Min_cycle;Max_cycle;Signal;HPM_P1;HPM_P2
2022/09/09 00:00:40;;;;;;;0.10;0.10;;;;;;;13.13;100.00;100716.50;5006171;28;20026;-69
2022/09/09 00:03:12;;;;;;;0.00;0.00;;;;;;;12.95;100.00;100687.53;5003927;28;20030;-69
2022/09/09 00:05:50;;;;;;;0.00;0.00;;;;;;;13.15;100.00;100709.97;5004709;28;20049;-68
2022/09/09 00:08:20;;;;;;;0.10;0.10;;;;;;;13.13;100.00;100708.41;5005058;28;20030;-69
2022/09/09 00:10:53;;;;;;;0.00;0.00;;;;;;;13.03;100.00;100706.53;5009586;28;20036;-70
2022/09/09 00:13:36;;;;;;;0.00;0.00;;;;;;;13.06;100.00;100700.03;5003575;28;20026;-68
2022/09/09 00:16:07;;;;;;;0.10;0.10;;;;;;;13.05;100.00;100701.03;5005501;28;20032;-69
2022/09/09 00:18:51;;;;;;;0.00;0.00;;;;;;;13.10;100.00;100703.31;4995877;28;20023;-68
2022/09/09 00:21:17;;;;;;;0.00;0.00;;;;;;;13.00;100.00;100714.06;4998610;28;20034;-68
2022/09/09 00:23:54;;;;;;;0.00;0.00;;;;;;;13.00;100.00;100704.13;5004954;28;20900;-68
2022/09/09 00:26:41;;;;;;;0.00;0.00;;;;;;;12.97;100.00;100703.56;5006654;28;20035;-69
2022/09/09 00:29:15;;;;;;;0.03;0.03;;;;;;;12.96;100.00;100699.16;4997901;28;20033;-69
2022/09/09 00:31:40;;;;;;;0.00;0.00;;;;;;;12.73;100.00;100683.22;4997307;28;20084;-69
2022/09/09 00:34:13;;;;;;;0.00;0.00;;;;;;;12.80;100.00;100695.16;5000650;28;20095;-68
2022/09/09 00:36:39;;;;;;;0.03;0.03;;;;;;;12.74;100.00;100690.31;4997202;28;20034;-68
2022/09/09 00:39:05;;;;;;;0.00;0.00;;;;;;;12.81;100.00;100694.19;5001115;28;20041;-68
2022/09/09 00:41:58;;;;;;;0.05;0.05;;;;;;;12.73;100.00;100699.38;5001126;28;20029;-68
2022/09/09 00:44:35;;;;;;;0.00;0.00;;;;;;;12.58;100.00;100693.53;5002698;28;20033;-69
2022/09/09 00:47:22;;;;;;;0.10;0.10;;;;;;;12.70;100.00;100694.28;4999857;28;20032;-68
2022/09/09 00:49:59;;;;;;;0.03;0.03;;;;;;;12.53;100.00;100685.00;5002876;28;20096;-69
2022/09/09 00:52:41;;;;;;;0.10;0.10;;;;;;;12.65;100.00;100686.63;5009960;28;20058;-68
2022/09/09 00:55:25;;;;;;;0.08;0.08;;;;;;;12.53;100.00;100691.25;5014509;28;20057;-69
2022/09/09 00:57:52;;;;;;;0.00;0.00;;;;;;;12.51;100.00;100687.84;5002113;28;20030;-68
2022/09/09 01:00:26;;;;;;;0.00;0.00;;;;;;;12.44;100.00;100678.59;4996400;28;20134;-68
2022/09/09 01:03:04;;;;;;;0.10;0.10;;;;;;;12.57;100.00;100673.84;5001981;28;20026;-68
2022/09/09 01:05:32;;;;;;;0.00;0.00;;;;;;;12.53;100.00;100675.09;5003416;28;20041;-68
2022/09/09 01:07:58;;;;;;;0.03;0.03;;;;;;;12.55;100.00;100678.50;5009678;28;20467;-68
2022/09/09 01:10:47;;;;;;;0.08;0.08;;;;;;;12.53;100.00;100676.91;5004051;28;20029;-68
2022/09/09 01:13:30;;;;;;;0.10;0.10;;;;;;;12.48;100.00;100669.25;5016538;28;20536;-69
2022/09/09 01:26:54;;;;;;;0.00;0.00;;;;;;;12.43;100.00;100675.06;5008041;28;20683;-68
2022/09/09 01:29:21;;;;;;;0.10;0.10;;;;;;;12.28;100.00;100654.84;5002043;28;20113;-68
2022/09/09 01:31:55;;;;;;;0.10;0.10;;;;;;;12.35;100.00;100657.84;5005577;28;20065;-68
2022/09/09 01:34:21;;;;;;;;;;;;;;;12.39;100.00;100678.13;5003897;28;20033;-68
2022/09/09 01:36:52;;;;;;;0.08;0.08;;;;;;;12.26;100.00;100651.44;5000267;28;19921;-68
2022/09/09 01:39:17;;;;;;;0.10;0.10;;;;;;;12.41;100.00;100673.47;5003926;28;20040;-68
2022/09/09 01:41:42;;;;;;;0.10;0.10;;;;;;;12.42;100.00;100676.03;4996752;28;20026;-68
2022/09/09 01:44:08;;;;;;;0.10;0.10;;;;;;;12.31;100.00;100659.97;4999014;28;21242;-69
2022/09/09 01:46:33;;;;;;;0.10;0.10;;;;;;;12.34;100.00;100666.91;4997288;28;20025;-68
2022/09/09 01:49:00;;;;;;;0.10;0.10;;;;;;;12.37;100.00;100670.22;4997347;28;20618;-68
2022/09/09 01:51:26;;;;;;;0.22;0.10;;;;;;;12.36;100.00;100668.50;5002609;28;20528;-68
2022/09/09 01:53:51;;;;;;;0.10;0.10;;;;;;;12.34;100.00;100669.59;5000329;28;20148;-68
2022/09/09 01:56:31;;;;;;;0.10;0.10;;;;;;;12.29;100.00;100661.94;5001871;28;20030;-69
2022/09/09 01:59:18;;;;;;;0.10;0.10;;;;;;;12.35;100.00;100664.09;5018764;28;20052;-68
2022/09/09 02:01:49;;;;;;;0.10;0.10;;;;;;;12.34;100.00;100658.84;4998979;28;20076;-69
2022/09/09 02:04:36;;;;;;;0.05;0.05;;;;;;;12.31;100.00;100657.28;4997109;28;20140;-69
2022/09/09 02:07:01;;;;;;;0.10;0.10;;;;;;;12.32;100.00;100653.59;4997920;28;20555;-69
2022/09/09 02:09:29;;;;;;;0.10;0.10;;;;;;;12.45;100.00;100658.75;5007666;28;20038;-68
2022/09/09 02:12:04;;;;;;;0.08;0.08;;;;;;;12.48;100.00;100647.72;4999760;28;20037;-69
2022/09/09 02:14:34;;;;;;;0.10;0.10;;;;;;;12.49;100.00;100645.84;4999373;28;20044;-69
2022/09/09 02:17:04;;;;;;;0.10;0.10;;;;;;;12.48;100.00;100653.09;4997958;28;20026;-70
2022/09/09 02:19:35;;;;;;;0.05;0.05;;;;;;;12.37;100.00;100616.38;5002064;28;20032;-69
2022/09/09 02:22:01;;;;;;;0.10;0.10;;;;;;;12.49;100.00;100644.03;4997963;28;20033;-70
2022/09/09 02:24:29;;;;;;;0.10;0.10;;;;;;;12.47;100.00;100647.84;4997914;28;20030;-68
2022/09/09 02:26:55;;;;;;;0.00;0.00;;;;;;;12.56;100.00;100641.63;5015615;28;20087;-68
2022/09/09 02:29:25;;;;;;;0.10;0.10;;;;;;;12.57;100.00;100640.66;5001652;28;20034;-69
2022/09/09 02:31:51;;;;;;;0.10;0.10;;;;;;;12.65;100.00;100643.53;5003874;28;20026;-68
2022/09/09 02:34:18;;;;;;;0.10;0.10;;;;;;;12.49;100.00;100644.03;5020617;28;20041;-69
2022/09/09 02:36:45;;;;;;;0.10;0.10;;;;;;;12.55;100.00;100642.63;5001282;28;20399;-68
2022/09/09 02:39:11;;;;;;;0.10;0.10;;;;;;;12.63;100.00;100634.72;5006380;28;20034;-68
2022/09/09 02:41:39;;;;;;;0.10;0.10;;;;;;;12.63;100.00;100639.25;5001082;28;20059;-68
2022/09/09 02:44:12;;;;;;;0.10;0.10;;;;;;;12.56;100.00;100637.13;4999822;28;20050;-69
2022/09/09 02:47:01;;;;;;;0.10;0.10;;;;;;;12.68;100.00;100643.25;4997790;28;20025;-68
2022/09/09 02:49:49;;;;;;;0.10;0.10;;;;;;;12.67;100.00;100637.97;5002340;28;20030;-68
2022/09/09 02:52:16;;;;;;;0.10;0.10;;;;;;;12.62;100.00;100645.63;4996589;28;20141;-70
2022/09/09 02:54:43;;;;;;;0.10;0.10;;;;;;;12.72;100.00;100650.03;4999874;28;20475;-69
2022/09/09 02:57:22;;;;;;;0.10;0.10;;;;;;;12.53;100.00;100637.41;5002877;28;20052;-69
2022/09/09 02:59:48;;;;;;;0.10;0.10;;;;;;;12.66;100.00;100645.22;4997711;28;20028;-68
2022/09/09 03:02:14;;;;;;;0.10;0.10;;;;;;;12.64;100.00;100649.88;5016009;28;20022;-69
2022/09/09 03:04:40;;;;;;;0.10;0.10;;;;;;;12.61;100.00;100650.16;5003186;28;20417;-68
2022/09/09 03:07:06;;;;;;;0.10;0.10;;;;;;;12.68;100.00;100655.84;5000050;28;20092;-69
2022/09/09 03:09:32;;;;;;;0.10;0.10;;;;;;;12.68;100.00;100655.84;5002804;28;20473;-68
2022/09/09 03:11:58;;;;;;;0.00;0.00;;;;;;;12.62;100.00;100668.03;5002368;28;20061;-70
2022/09/09 03:14:25;;;;;;;0.10;0.10;;;;;;;12.43;100.00;100628.41;5000778;28;20173;-70
2022/09/09 03:16:53;;;;;;;0.10;0.10;;;;;;;12.56;100.00;100638.94;5001727;28;20029;-69
2022/09/09 03:19:19;;;;;;;0.10;0.10;;;;;;;12.61;100.00;100642.09;5016622;28;20045;-68
2022/09/09 03:21:45;;;;;;;0.10;0.10;;;;;;;12.62;100.00;100657.25;5003595;28;20025;-69
2022/09/09 03:24:11;;;;;;;0.03;0.03;;;;;;;12.69;100.00;100652.16;4998270;28;20061;-69
2022/09/09 03:26:37;;;;;;;0.17;0.17;;;;;;;12.52;100.00;100619.53;4999870;28;20360;-69
2022/09/09 03:29:06;;;;;;;0.10;0.10;;;;;;;12.84;100.00;100649.94;4999956;28;20454;-68
2022/09/09 03:31:32;;;;;;;0.10;0.10;;;;;;;12.73;100.00;100640.97;4994446;28;20030;-70
2022/09/09 03:33:58;;;;;;;0.10;0.10;;;;;;;12.86;100.00;100643.41;4999211;28;20029;-69
2022/09/09 03:36:24;;;;;;;0.10;0.10;;;;;;;12.92;100.00;100657.31;5000328;28;20029;-70
2022/09/09 03:38:50;;;;;;;0.10;0.10;;;;;;;12.96;100.00;100662.31;4999089;28;20446;-70
2022/09/09 03:41:17;;;;;;;0.10;0.10;;;;;;;12.94;100.00;100660.72;4999024;28;20046;-69
2022/09/09 03:43:42;;;;;;;0.10;0.10;;;;;;;13.03;100.00;100658.03;4998199;28;20361;-68
2022/09/09 03:46:08;;;;;;;0.20;0.20;;;;;;;12.96;100.00;100656.03;4996345;28;20410;-69
2022/09/09 03:48:33;;;;;;;0.20;0.20;;;;;;;12.97;100.00;100664.00;5001673;28;20030;-69
2022/09/09 03:51:01;;;;;;;0.10;0.10;;;;;;;13.11;100.00;100656.50;5000669;28;20038;-69
2022/09/09 03:53:26;;;;;;;0.10;0.10;;;;;;;13.20;100.00;100656.50;4998283;28;20077;-68
2022/09/09 03:55:59;;;;;;;0.10;0.10;;;;;;;12.97;100.00;100647.84;5001935;28;20038;-70
2022/09/09 03:58:26;;;;;;;0.10;0.10;;;;;;;13.18;100.00;100652.25;4999730;28;20085;-70
2022/09/09 04:00:58;;;;;;;0.10;0.10;;;;;;;13.19;100.00;100657.47;5000246;28;20025;-68
2022/09/09 04:03:24;;;;;;;0.10;0.10;;;;;;;13.23;100.00;100649.97;4997422;28;20022;-69
2022/09/09 04:05:51;;;;;;;0.10;0.10;;;;;;;13.25;100.00;100649.81;4998832;28;20385;-69
2022/09/09 04:08:16;;;;;;;0.10;0.10;;;;;;;13.22;100.00;100653.66;5000849;28;20042;-70
2022/09/09 04:10:42;;;;;;;0.10;0.10;;;;;;;13.22;100.00;100647.41;4998351;28;20030;-69
2022/09/09 04:13:07;;;;;;;0.10;0.10;;;;;;;13.29;100.00;100648.56;4998600;28;20034;-70
2022/09/09 04:15:33;;;;;;;0.10;0.10;;;;;;;13.13;100.00;100628.38;5000367;28;20029;-70
2022/09/09 04:17:58;;;;;;;0.10;0.10;;;;;;;13.31;100.00;100644.72;5002853;28;20041;-69
2022/09/09 04:20:23;;;;;;;0.10;0.10;;;;;;;13.45;100.00;100618.34;4995465;28;20022;-69
2022/09/09 04:22:49;;;;;;;0.10;0.10;;;;;;;13.35;100.00;100632.66;4995233;28;20464;-69
2022/09/09 04:25:14;;;;;;;0.10;0.10;;;;;;;13.39;100.00;100632.38;5007417;28;20495;-69
2022/09/09 04:27:39;;;;;;;0.10;0.10;;;;;;;13.42;100.00;100635.66;4999896;28;20030;-69
2022/09/09 04:30:06;;;;;;;0.10;0.10;;;;;;;13.23;100.00;100608.69;4998532;28;20065;-71
2022/09/09 04:32:33;;;;;;;0.20;0.20;;;;;;;13.35;100.00;100621.88;5001843;28;20113;-70
2022/09/09 04:34:58;;;;;;;0.00;0.00;;;;;;;13.41;100.00;100628.56;4998361;28;20773;-69
2022/09/09 04:37:24;;;;;;;0.05;0.05;;;;;;;13.42;100.00;100629.41;4998616;28;20488;-68
2022/09/09 04:39:50;;;;;;;0.20;0.20;;;;;;;13.41;100.00;100625.03;5000830;28;20038;-70
2022/09/09 04:42:16;;;;;;;0.13;0.13;;;;;;;13.42;100.00;100626.72;4997301;28;20030;-69
2022/09/09 04:44:41;;;;;;;0.10;0.10;;;;;;;13.30;100.00;100604.44;4999213;28;20049;-70
2022/09/09 04:47:06;;;;;;;0.20;0.20;;;;;;;13.50;100.00;100619.63;4996192;28;20030;-69
2022/09/09 04:49:32;;;;;;;0.05;0.05;;;;;;;13.57;100.00;100622.56;5001472;28;20112;-70
2022/09/09 04:51:57;;;;;;;0.10;0.10;;;;;;;13.55;100.00;100619.16;5000118;28;20025;-70
2022/09/09 04:54:22;;;;;;;0.40;0.10;;;;;;;13.50;100.00;100613.38;5000673;28;20262;-71
2022/09/09 04:56:50;;;;;;;0.10;0.10;;;;;;;13.60;100.00;100627.69;5003118;28;20072;-70
2022/09/09 04:59:15;;;;;;;0.10;0.10;;;;;;;13.49;100.00;100609.81;5004790;28;20030;-71
2022/09/09 05:01:41;;;;;;;0.20;0.20;;;;;;;13.58;100.00;100607.25;5000635;28;20033;-71
2022/09/09 05:04:06;;;;;;;0.10;0.10;;;;;;;13.48;100.00;100613.50;4996198;28;20414;-70
2022/09/09 05:06:31;;;;;;;0.10;0.10;;;;;;;13.53;100.00;100618.47;5002412;28;20056;-70
2022/09/09 05:08:57;;;;;;;0.10;0.10;;;;;;;13.64;100.00;100612.03;5003834;28;20117;-71
2022/09/09 05:11:27;;;;;;;0.10;0.10;;;;;;;13.67;100.00;100619.84;4997707;28;20033;-69
2022/09/09 05:13:52;;;;;;;0.10;0.10;;;;;;;13.62;100.00;100596.03;4994177;28;20092;-70
2022/09/09 05:16:19;;;;;;;0.20;0.20;;;;;;;13.75;100.00;100611.91;5014430;28;20022;-69
2022/09/09 05:18:45;;;;;;;0.10;0.10;;;;;;;13.62;100.00;100593.31;4999947;28;20420;-69
2022/09/09 05:21:11;;;;;;;0.10;0.10;;;;;;;13.65;100.00;100601.13;4995218;28;20500;-68
2022/09/09 05:23:37;;;;;;;0.10;0.10;;;;;;;13.77;100.00;100611.75;4997855;28;20041;-69
2022/09/09 05:26:04;;;;;;;0.10;0.10;;;;;;;13.80;100.00;100611.44;4993922;28;20400;-70
2022/09/09 05:28:30;;;;;;;0.10;0.10;;;;;;;13.78;100.00;100608.91;4997123;28;20029;-71
2022/09/09 05:31:00;;;;;;;0.10;0.10;;;;;;;13.56;100.00;100582.28;4996603;28;20617;-72
2022/09/09 05:33:26;;;;;;;0.20;0.20;;;;;;;13.68;100.00;100601.84;5000013;28;20553;-70
2022/09/09 05:35:59;;;;;;;0.13;0.13;;;;;;;13.80;100.00;100608.75;4980177;28;20050;-70
2022/09/09 05:38:25;;;;;;;0.10;0.10;;;;;;;13.58;100.00;100583.81;4998308;28;20022;-72
2022/09/09 05:40:52;;;;;;;0.20;0.20;;;;;;;13.77;100.00;100619.88;5001543;28;20041;-72
2022/09/09 05:43:18;;;;;;;0.10;0.10;;;;;;;13.86;100.00;100591.97;4997610;28;20033;-73
2022/09/09 05:45:43;;;;;;;0.10;0.10;;;;;;;13.86;100.00;100610.03;5001624;28;20014;-74
2022/09/09 05:48:08;;;;;;;0.15;0.15;;;;;;;14.15;100.00;100609.09;4998263;28;20080;-70
2022/09/09 05:50:34;;;;;;;0.10;0.10;;;;;;;14.09;100.00;100603.28;5005675;28;20515;-73
2022/09/09 05:52:59;;;;;;;0.10;0.10;;;;;;;14.09;100.00;100607.81;4999319;28;20064;-70
2022/09/09 05:55:25;;;;;;;0.10;0.10;;;;;;;14.11;100.00;100611.22;5002237;28;20452;-72
2022/09/09 05:57:51;;;;;;;0.10;0.10;;;;;;;14.06;100.00;100616.19;4999171;28;20117;-70
2022/09/09 06:00:17;;;;;;;0.10;0.10;;;;;;;14.08;100.00;100606.09;5008211;28;20045;-71
2022/09/09 06:02:43;;;;;;;0.10;0.10;;;;;;;14.21;100.00;100608.47;4995441;28;20499;-67
2022/09/09 06:05:08;;;;;;;0.10;0.10;;;;;;;14.10;100.00;100625.69;5003010;28;20030;-73
2022/09/09 06:07:34;;;;;;;0.10;0.10;;;;;;;14.19;100.00;100616.72;5014710;28;20067;-72
2022/09/09 06:09:59;;;;;;;0.10;0.10;;;;;;;14.31;100.00;100613.81;4999268;28;20057;-70
2022/09/09 06:12:26;;;;;;;0.10;0.10;;;;;;;14.12;100.00;100591.31;5005604;28;20037;-72
2022/09/09 06:14:51;;;;;;;0.10;0.10;;;;;;;14.24;100.00;100611.72;5002522;28;20072;-70
2022/09/09 06:17:17;;;;;;;0.10;0.10;;;;;;;14.21;100.00;100624.66;4997306;28;20124;-77
2022/09/09 06:19:42;;;;;;;0.00;0.00;;;;;;;14.39;100.00;100628.28;5000510;28;20416;-74
2022/09/09 06:22:09;;;;;;;0.10;0.10;;;;;;;14.36;100.00;100625.03;5004139;28;20356;-76
2022/09/09 06:24:34;;;;;;;0.10;0.10;;;;;;;14.39;100.00;100636.41;4999986;28;20037;-73
2022/09/09 06:27:00;;;;;;;0.10;0.10;;;;;;;14.38;100.00;100626.59;5000625;28;20034;-71
2022/09/09 06:29:25;;;;;;;0.10;0.10;;;;;;;14.55;100.00;100624.06;5002583;28;20038;-73
2022/09/09 06:31:50;;;;;;;0.10;0.10;;;;;;;14.58;100.00;100629.19;5000644;28;20057;-67
2022/09/09 06:34:16;;;;;;;0.10;0.10;;;;;;;14.77;100.00;100619.28;5000890;28;20034;-72
2022/09/09 06:36:41;;;;;;;0.10;0.10;;;;;;;14.83;100.00;100632.19;5004507;28;20087;-69
2022/09/09 06:39:08;;;;;;;0.10;0.10;;;;;;;14.87;100.00;100636.28;4997173;28;20372;-68
2022/09/09 06:41:34;;;;;;;0.10;0.10;;;;;;;14.58;100.00;100612.09;5002297;28;20053;-67
2022/09/09 06:44:00;;;;;;;0.10;0.10;;;;;;;14.73;100.00;100613.34;5000801;28;20063;-67
2022/09/09 06:46:28;;;;;;;0.10;0.10;;;;;;;14.70;100.00;100603.66;4999748;28;20052;-68
2022/09/09 06:48:58;;;;;;;0.00;0.00;;;;;;;14.81;100.00;100635.06;5007027;28;20030;-69
2022/09/09 06:51:25;;;;;;;0.10;0.10;;;;;;;15.02;100.00;100633.03;5006405;28;20452;-70
2022/09/09 06:53:55;;;;;;;0.10;0.10;;;;;;;14.98;100.00;100621.69;4999992;28;20033;-69
2022/09/09 06:56:27;;;;;;;0.10;0.10;;;;;;;14.98;100.00;100638.75;5006921;28;20030;-72
2022/09/09 06:58:54;;;;;;;0.10;0.10;;;;;;;15.11;100.00;100605.94;4996962;28;20037;-70
2022/09/09 07:01:24;;;;;;;0.10;0.10;;;;;;;15.25;100.00;100628.88;4999580;28;20080;-69
2022/09/09 07:03:51;;;;;;;0.10;0.10;;;;;;;15.22;100.00;100634.63;5001825;28;20387;-70
2022/09/09 07:06:20;;;;;;;0.10;0.10;;;;;;;15.08;100.00;100627.03;5004393;28;20022;-71
2022/09/09 07:08:50;;;;;;;0.10;0.10;;;;;;;15.07;100.00;100634.31;5004218;28;20064;-72
2022/09/09 07:11:16;;;;;;;0.08;0.08;;;;;;;15.13;100.00;100638.22;4999167;28;20519;-72
2022/09/09 07:13:42;;;;;;;0.10;0.10;;;;;;;15.21;100.00;100613.13;4998732;28;20117;-76
2022/09/09 07:16:10;;;;;;;0.10;0.10;;;;;;;15.39;100.00;100637.44;4998427;28;20033;-73
2022/09/09 07:18:35;;;;;;;0.10;0.10;;;;;;;15.39;100.00;100626.63;5002487;28;20105;-77
2022/09/09 07:21:02;;;;;;;0.10;0.10;;;;;;;15.51;100.00;100641.59;5001678;28;20435;-72
2022/09/09 07:23:27;;;;;;;0.10;0.10;;;;;;;15.80;100.00;100628.78;5001224;28;20101;-74
2022/09/09 07:25:53;;;;;;;0.10;0.10;;;;;;;15.90;100.00;100634.97;5002376;28;20030;-73
2022/09/09 07:28:19;;;;;;;0.10;0.10;;;;;;;15.94;100.00;100632.81;4997897;28;20030;-74
2022/09/09 07:30:54;;;;;;;0.10;0.10;;;;;;;15.87;100.00;100646.13;5002962;28;20022;-75
2022/09/09 07:33:19;;;;;;;0.10;0.10;;;;;;;15.95;100.00;100646.16;4995872;28;20049;-73
2022/09/09 07:35:45;;;;;;;0.10;0.10;;;;;;;15.97;100.00;100627.91;5004435;28;20074;-67
2022/09/09 07:38:11;;;;;;;0.08;0.08;;;;;;;16.10;100.00;100641.00;5004430;28;20023;-68
2022/09/09 07:40:36;;;;;;;0.00;0.00;;;;;;;16.30;100.00;100640.75;5005368;28;20080;-68
2022/09/09 07:43:01;;;;;;;0.10;0.10;;;;;;;16.22;100.00;100644.28;5007986;28;20463;-68
2022/09/09 07:45:28;;;;;;;0.10;0.10;;;;;;;16.23;100.00;100620.78;4996724;28;20045;-70
2022/09/09 07:47:53;;;;;;;0.10;0.10;;;;;;;16.45;100.00;100646.41;5001011;28;20489;-67
2022/09/09 07:50:19;;;;;;;0.00;0.00;;;;;;;16.56;100.00;100648.84;5001146;28;20144;-70
2022/09/09 07:52:44;;;;;;;0.00;0.00;;;;;;;16.79;100.00;100648.25;5003035;28;20026;-70
2022/09/09 07:55:10;;;;;;;0.10;0.10;;;;;;;17.02;100.00;100639.50;5001425;28;20041;-67
2022/09/09 07:57:36;;;;;;;0.00;0.00;;;;;;;17.17;99.86;100643.28;5000781;28;20753;-68
2022/09/09 08:00:03;;;;;;;0.08;0.08;;;;;;;17.25;98.43;100647.84;5003780;28;20036;-71
2022/09/09 08:02:29;;;;;;;0.10;0.10;;;;;;;17.17;96.04;100658.69;4997469;28;20137;-68
2022/09/09 08:04:54;;;;;;;0.00;0.00;;;;;;;17.06;96.39;100652.59;4999129;28;20128;-69
2022/09/09 08:07:21;;;;;;;0.00;0.00;;;;;;;17.00;95.62;100636.97;4995582;28;20502;-71
2022/09/09 08:09:46;;;;;;;0.05;0.00;;;;;;;16.88;94.50;100647.25;5004229;28;20042;-70
2022/09/09 08:12:12;;;;;;;0.10;0.10;;;;;;;16.65;94.68;100655.16;4997957;28;20157;-68
2022/09/09 08:14:38;;;;;;;0.10;0.10;;;;;;;16.36;96.89;100664.50;4997331;28;20715;-66
2022/09/09 08:17:04;;;;;;;0.03;0.03;;;;;;;16.25;96.54;100660.22;4999213;28;20036;-68
2022/09/09 08:19:30;;;;;;;0.00;0.00;;;;;;;16.70;96.00;100660.06;5001869;28;20025;-67
2022/09/09 08:21:56;;;;;;;0.00;0.00;;;;;;;16.59;94.29;100647.66;5005826;28;20743;-69
2022/09/09 08:24:22;;;;;;;0.00;0.00;;;;;;;16.59;96.66;100663.91;5005436;28;20065;-70
2022/09/09 08:26:49;;;;;;;0.10;0.10;;;;;;;16.81;96.68;100664.38;4998404;28;20049;-67
2022/09/09 08:29:15;;;;;;;0.10;0.10;;;;;;;16.63;94.89;100651.75;5022503;28;20036;-70
2022/09/09 08:31:54;;;;;;;0.10;0.10;;;;;;;16.71;95.00;100667.19;4999018;28;20034;-69
2022/09/09 08:34:20;;;;;;;0.10;0.10;;;;;;;16.85;94.43;100663.00;4996503;28;20711;-67
2022/09/09 08:36:47;;;;;;;0.10;0.10;;;;;;;16.69;94.60;100642.97;4997894;28;20584;-68
2022/09/09 08:39:17;;;;;;;0.00;0.00;;;;;;;17.01;93.43;100654.94;4997947;28;20363;-68
2022/09/09 08:42:05;;;;;;;0.00;0.00;;;;;;;16.87;91.84;100672.69;4995333;28;20030;-66
2022/09/09 08:44:48;;;;;;;0.00;0.00;;;;;;;16.93;91.56;100663.88;4997942;28;20022;-67
2022/09/09 08:47:47;;;;;;;0.10;0.10;;;;;;;17.05;91.29;100669.88;4999469;28;20154;-71
2022/09/09 08:50:35;;;;;;;0.10;0.10;;;;;;;16.96;92.16;100660.00;5003465;28;20446;-69
2022/09/09 08:53:03;;;;;;;0.00;0.00;;;;;;;17.06;92.41;100689.69;4998637;28;20038;-69
2022/09/09 08:55:41;;;;;;;0.00;0.00;;;;;;;16.96;90.30;100694.41;4995064;28;20077;-68
2022/09/09 08:58:12;;;;;;;0.00;0.00;;;;;;;16.87;91.79;100669.97;4983239;28;20030;-69
2022/09/09 09:01:01;;;;;;;0.10;0.10;;;;;;;16.83;92.07;100676.72;4997633;28;20057;-67
2022/09/09 09:03:52;;;;;;;0.10;0.10;;;;;;;17.06;92.26;100684.28;4995310;28;20507;-69
2022/09/09 09:06:30;;;;;;;0.00;0.00;;;;;;;16.84;92.18;100681.13;4999423;28;20036;-69
2022/09/09 09:08:59;;;;;;;0.10;0.10;;;;;;;16.88;92.65;100677.09;4999446;28;20029;-68
2022/09/09 09:11:24;;;;;;;0.05;0.05;;;;;;;16.92;93.81;100678.47;5012234;28;20040;-71
2022/09/09 09:14:02;;;;;;;0.03;0.03;;;;;;;16.91;90.84;100687.59;4996193;28;20200;-70
2022/09/09 09:16:32;;;;;;;0.10;0.10;;;;;;;17.16;90.00;100675.97;4995863;28;20030;-69
2022/09/09 09:18:58;;;;;;;0.03;0.03;;;;;;;17.41;88.78;100690.44;4998532;28;20026;-75
2022/09/09 09:21:46;;;;;;;0.10;0.10;;;;;;;17.30;88.80;100685.31;4997507;28;20033;-77
2022/09/09 09:24:25;;;;;;;0.05;0.05;;;;;;;17.25;88.88;100683.13;4995051;28;20029;-72
2022/09/09 09:26:50;;;;;;;0.03;0.03;;;;;;;17.14;88.63;100687.00;4997623;28;20053;-74
2022/09/09 09:29:18;;;;;;;0.00;0.00;;;;;;;17.26;89.07;100673.09;5020642;28;20026;-72
2022/09/09 09:32:03;;;;;;;0.00;0.00;;;;;;;17.17;89.13;100686.69;4996929;28;20025;-73
2022/09/09 09:34:28;;;;;;;;;;;;;;;17.00;90.26;100696.63;5001564;28;20026;-75
2022/09/09 09:37:01;;;;;;;0.10;0.10;;;;;;;17.31;89.12;100684.31;5001127;28;19927;-71
2022/09/09 09:39:37;;;;;;;0.00;0.00;;;;;;;17.19;89.43;100689.22;5011092;28;20038;-72
2022/09/09 09:42:14;;;;;;;0.00;0.00;;;;;;;17.10;88.97;100682.94;5001595;28;20026;-70
2022/09/09 09:44:40;;;;;;;0.03;0.03;;;;;;;17.18;88.99;100674.81;5009279;28;20369;-73
2022/09/09 09:47:13;;;;;;;0.00;0.00;;;;;;;17.14;89.89;100680.72;5006400;28;20033;-71
2022/09/09 09:49:39;;;;;;;0.00;0.00;;;;;;;17.08;88.99;100664.09;5009661;28;20405;-72
2022/09/09 09:52:06;;;;;;;0.10;0.10;;;;;;;17.09;89.13;100663.06;5006720;28;20029;-74
2022/09/09 09:54:35;;;;;;;0.05;0.05;;;;;;;17.33;88.49;100680.44;5009493;28;20025;-75
2022/09/09 09:57:12;;;;;;;0.00;0.00;;;;;;;17.39;88.56;100678.91;5005499;28;20034;-71
2022/09/09 09:59:39;;;;;;;0.00;0.00;;;;;;;17.35;88.09;100694.66;5005509;28;20045;-71
2022/09/09 10:02:14;;;;;;;0.10;0.10;;;;;;;17.35;87.28;100691.94;5017573;28;20065;-74
2022/09/09 10:04:39;;;;;;;0.10;0.10;;;;;;;17.41;87.38;100689.56;5003669;28;20064;-69
2022/09/09 10:07:12;;;;;;;0.08;0.08;;;;;;;17.37;87.84;100698.06;5003782;28;20108;-74
2022/09/09 10:09:37;;;;;;;0.10;0.10;;;;;;;17.23;88.47;100687.88;5014026;28;20068;-71
2022/09/09 10:12:12;;;;;;;0.00;0.00;;;;;;;17.31;88.09;100684.31;5006531;28;20061;-73
2022/09/09 10:15:13;;;;;;;0.08;0.08;;;;;;;17.69;87.28;100679.25;4998335;28;20101;-73
2022/09/09 10:17:50;;;;;;;0.00;0.00;;;;;;;17.97;86.47;100692.47;4998170;28;20076;-69
2022/09/09 10:20:29;;;;;;;0.00;0.00;;;;;;;17.96;85.37;100690.78;4999826;28;20030;-71
2022/09/09 10:23:05;;;;;;;0.05;0.05;;;;;;;18.06;85.23;100652.59;4998037;28;20468;-71
2022/09/09 10:25:45;;;;;;;0.00;0.00;;;;;;;18.03;83.79;100672.78;5001285;28;20038;-69
2022/09/09 10:28:24;;;;;;;0.00;0.00;;;;;;;18.14;83.28;100682.47;5013671;28;20610;-70
2022/09/09 10:31:24;;;;;;;0.10;0.10;;;;;;;17.84;83.92;100690.28;5001390;28;20055;-71
2022/09/09 10:34:06;;;;;;;0.00;0.00;;;;;;;17.85;84.00;100691.97;4998192;28;20899;-73
2022/09/09 10:36:32;;;;;;;0.00;0.00;;;;;;;17.68;85.44;100688.41;5001241;28;20041;-65
2022/09/09 10:39:18;;;;;;;0.00;0.00;;;;;;;17.28;91.15;100699.06;4998421;28;20033;-66
2022/09/09 10:42:15;;;;;;;0.03;0.03;;;;;;;16.68;92.00;100692.78;4999124;28;20113;-68
2022/09/09 10:44:56;;;;;;;0.05;0.05;;;;;;;17.03;90.82;100695.44;5000069;28;20032;-70
2022/09/09 10:47:35;;;;;;;0.00;0.00;;;;;;;16.73;93.06;100687.72;4999568;28;20064;-70
2022/09/09 10:50:24;;;;;;;0.00;0.00;;;;;;;16.75;92.74;100701.09;4993681;28;20242;-71
2022/09/09 10:53:10;;;;;;;0.00;0.00;;;;;;;16.80;94.25;100698.75;5000909;28;20018;-71
2022/09/09 10:55:40;;;;;;;0.03;0.03;;;;;;;16.54;97.80;100694.22;5003323;28;20034;-67
2022/09/09 10:58:08;;;;;;;0.00;0.00;;;;;;;16.43;97.75;100703.50;5018335;28;20038;-68
2022/09/09 11:00:47;;;;;;;0.00;0.00;;;;;;;16.25;100.00;100700.03;4999307;28;20034;-70
2022/09/09 11:03:19;;;;;;;0.10;0.10;;;;;;;15.55;100.00;100707.09;4999460;28;20037;-71
2022/09/09 11:05:49;;;;;;;0.10;0.10;;;;;;;15.58;100.00;100699.50;4999357;28;20029;-75
2022/09/09 11:08:20;;;;;;;0.00;0.00;;;;;;;15.62;100.00;100691.06;4995829;28;20493;-69
2022/09/09 11:11:07;;;;;;;0.00;0.00;;;;;;;15.90;100.00;100694.53;4998779;28;20037;-68
2022/09/09 11:13:40;;;;;;;0.10;0.10;;;;;;;15.39;100.00;100708.63;5003592;28;20033;-71
2022/09/09 11:16:24;;;;;;;0.10;0.10;;;;;;;15.33;100.00;100701.16;5014244;28;20109;-68
2022/09/09 11:18:49;;;;;;;0.10;0.10;;;;;;;15.30;100.00;100705.00;4997854;28;20073;-71
2022/09/09 11:21:31;;;;;;;0.10;0.10;;;;;;;15.34;100.00;100704.69;5008295;28;20141;-70
2022/09/09 11:24:23;;;;;;;0.10;0.10;;;;;;;15.25;100.00;100682.13;5002641;28;20045;-72
2022/09/09 11:26:59;;;;;;;0.10;0.10;;;;;;;15.55;100.00;100690.84;4994699;28;20165;-68
2022/09/09 11:29:40;;;;;;;0.10;0.10;;;;;;;15.73;100.00;100690.84;4995907;28;20065;-69
2022/09/09 11:32:51;;;;;;;0.10;0.10;;;;;;;15.74;100.00;100685.25;5005133;28;20084;-70
2022/09/09 11:35:38;;;;;;;0.10;0.10;;;;;;;15.88;100.00;100691.16;5000981;28;20054;-69
2022/09/09 11:38:19;;;;;;;0.10;0.10;;;;;;;16.09;100.00;100687.22;4999141;28;20026;-71
2022/09/09 11:40:44;;;;;;;0.00;0.00;;;;;;;16.17;100.00;100684.53;5004125;28;20411;-69
2022/09/09 11:43:46;;;;;;;0.00;0.00;;;;;;;15.97;100.00;100690.19;5001085;28;20049;-68
2022/09/09 11:46:12;;;;;;;0.00;0.00;;;;;;;15.99;100.00;100673.78;4987235;28;20584;-71